Time;durP1;ratioP1;P1;durP2;ratioP2;P2;SDS_P1;SDS_P2;PMS_P1;PMS_P2;Temp;Humidity;BMP_temperature;BMP_pressure;BME280_temperature;BME280_humidity;BME280_pressure;Samples;Min_cycle;Max_cycle;Signal;HPM_P1;HPM_P2
2023/10/25 00:01:22;;;;;;;17.00;12.73;;;7.60;99.90;;;;;;5037268;28;20230;-77
2023/10/25 00:03:49;;;;;;;15.77;13.17;;;7.60;99.90;;;;;;5039860;28;20235;-77
2023/10/25 00:06:15;;;;;;;15.33;12.50;;;7.50;99.90;;;;;;5037798;28;20222;-76
2023/10/25 00:08:43;;;;;;;17.80;13.30;;;7.50;99.90;;;;;;5040212;28;20328;-76
2023/10/25 00:11:10;;;;;;;16.63;13.30;;;7.50;99.90;;;;;;5037302;28;20220;-76
2023/10/25 00:13:37;;;;;;;22.17;14.43;;;7.50;99.90;;;;;;5037684;28;20481;-76
2023/10/25 00:16:05;;;;;;;16.63;13.50;;;7.50;99.90;;;;;;5037378;28;20223;-76
2023/10/25 00:18:32;;;;;;;19.10;13.27;;;7.50;99.90;;;;;;5039367;28;20240;-77
2023/10/25 00:20:58;;;;;;;19.80;13.37;;;7.50;99.90;;;;;;5036676;28;20580;-77
2023/10/25 00:23:25;;;;;;;17.97;13.50;;;7.40;99.90;;;;;;5036615;28;20250;-77
2023/10/25 00:25:53;;;;;;;36.53;15.00;;;7.40;99.90;;;;;;5023610;28;20275;-77
2023/10/25 00:28:20;;;;;;;21.27;13.63;;;7.40;99.90;;;;;;5053796;28;20225;-77
2023/10/25 00:30:47;;;;;;;23.03;14.73;;;7.40;99.90;;;;;;5051561;28;20226;-77
2023/10/25 00:33:14;;;;;;;18.63;13.67;;;7.40;99.90;;;;;;5035534;28;20642;-77
2023/10/25 00:35:42;;;;;;;61.17;17.13;;;7.40;99.90;;;;;;5038237;28;20557;-77
2023/10/25 00:38:09;;;;;;;21.40;13.87;;;7.30;99.90;;;;;;5036492;28;20233;-77
2023/10/25 00:40:37;;;;;;;31.87;16.03;;;7.30;99.90;;;;;;5036455;28;20751;-77
2023/10/25 00:43:16;;;;;;;22.97;16.33;;;7.30;99.90;;;;;;5036070;28;20227;-76
2023/10/25 00:45:57;;;;;;;19.67;15.13;;;7.30;99.90;;;;;;5036263;28;20248;-76
2023/10/25 00:48:24;;;;;;;26.77;16.30;;;7.30;99.90;;;;;;5030597;28;20285;-77
2023/10/25 00:50:52;;;;;;;25.47;15.30;;;7.30;99.90;;;;;;5035699;28;20227;-77
2023/10/25 00:53:18;;;;;;;22.27;15.47;;;7.30;99.90;;;;;;5036912;28;20729;-77
2023/10/25 00:55:45;;;;;;;25.30;16.17;;;7.30;99.90;;;;;;5038320;28;20226;-77
2023/10/25 00:58:12;;;;;;;22.67;15.87;;;7.40;99.90;;;;;;5036459;28;20691;-78
2023/10/25 01:00:40;;;;;;;54.10;17.93;;;7.40;99.90;;;;;;5036542;28;20314;-77
2023/10/25 01:03:08;;;;;;;27.77;16.83;;;7.30;99.90;;;;;;5038733;28;20611;-77
2023/10/25 01:05:35;;;;;;;24.23;15.87;;;7.30;99.90;;;;;;5036781;28;20723;-77
2023/10/25 01:08:02;;;;;;;31.33;15.93;;;7.30;99.90;;;;;;5036209;28;20317;-77
2023/10/25 01:10:29;;;;;;;23.67;16.23;;;7.30;99.90;;;;;;5039155;28;20230;-77
2023/10/25 01:12:55;;;;;;;21.13;14.53;;;7.30;99.90;;;;;;5040432;28;20317;-77
2023/10/25 01:15:23;;;;;;;33.07;15.80;;;7.20;99.90;;;;;;5073064;22;20306;-83
2023/10/25 01:17:52;;;;;;;224.80;23.50;;;7.20;99.90;;;;;;5067003;28;20237;-83
2023/10/25 01:20:20;;;;;;;27.10;15.73;;;7.10;99.90;;;;;;5066198;28;20232;-84
2023/10/25 01:22:49;;;;;;;23.43;16.07;;;7.10;99.90;;;;;;5066612;28;20245;-85
2023/10/25 01:25:16;;;;;;;64.87;17.93;;;7.00;99.90;;;;;;5065901;28;20260;-85
2023/10/25 01:27:44;;;;;;;33.73;14.70;;;7.00;99.90;;;;;;5066616;28;20269;-84
2023/10/25 01:30:12;;;;;;;35.57;15.93;;;7.00;99.90;;;;;;5065809;28;20220;-84
2023/10/25 01:32:39;;;;;;;21.70;14.33;;;6.90;99.90;;;;;;5055786;28;20692;-84
2023/10/25 01:35:07;;;;;;;38.43;16.70;;;6.90;99.90;;;;;;5048939;28;20311;-84
2023/10/25 01:37:34;;;;;;;49.10;17.60;;;6.80;99.90;;;;;;5065761;28;20221;-83
2023/10/25 01:40:04;;;;;;;34.30;18.90;;;6.80;99.90;;;;;;5066305;28;20238;-83
2023/10/25 01:42:31;;;;;;;27.10;17.70;;;6.80;99.90;;;;;;5057941;28;20219;-82
2023/10/25 01:44:58;;;;;;;24.93;17.20;;;6.70;99.90;;;;;;5066045;28;20261;-83
2023/10/25 01:47:25;;;;;;;34.00;17.90;;;6.70;99.90;;;;;;5065525;28;20237;-82
2023/10/25 01:49:51;;;;;;;31.63;16.83;;;6.70;99.90;;;;;;5067814;28;20273;-82
2023/10/25 01:52:18;;;;;;;29.03;17.87;;;6.70;99.90;;;;;;5065341;28;20291;-82
2023/10/25 01:54:46;;;;;;;42.53;18.00;;;6.60;99.90;;;;;;5065871;28;20253;-82
2023/10/25 01:57:14;;;;;;;31.70;18.73;;;6.60;99.90;;;;;;5065297;28;20279;-82
2023/10/25 01:59:41;;;;;;;36.80;16.90;;;6.60;99.90;;;;;;5066090;28;20228;-83
2023/10/25 02:02:07;;;;;;;36.30;18.33;;;6.50;99.90;;;;;;5065382;28;20245;-83
2023/10/25 02:04:34;;;;;;;150.90;22.00;;;6.50;99.90;;;;;;5065572;28;20325;-82
2023/10/25 02:07:02;;;;;;;107.90;21.50;;;6.50;99.90;;;;;;5059800;28;20261;-83
2023/10/25 02:09:29;;;;;;;31.47;17.97;;;6.40;99.90;;;;;;5044997;28;20317;-82
2023/10/25 02:11:56;;;;;;;29.33;16.03;;;6.40;99.90;;;;;;5045481;28;20882;-83
2023/10/25 02:14:25;;;;;;;46.10;18.37;;;6.40;99.90;;;;;;5044897;28;20238;-83
2023/10/25 02:16:51;;;;;;;28.03;17.30;;;6.30;99.90;;;;;;5045416;28;20237;-83
2023/10/25 02:19:19;;;;;;;31.60;17.97;;;6.30;99.90;;;;;;5036976;28;20225;-83
2023/10/25 02:21:46;;;;;;;28.53;17.63;;;6.30;99.90;;;;;;5060185;28;20425;-83
2023/10/25 02:24:16;;;;;;;31.30;17.87;;;6.30;99.90;;;;;;5045064;28;20229;-83
2023/10/25 02:26:43;;;;;;;28.97;17.60;;;6.30;99.90;;;;;;5045277;28;20325;-82
2023/10/25 02:29:10;;;;;;;33.47;18.27;;;6.30;99.90;;;;;;5045149;28;20240;-82
2023/10/25 02:31:38;;;;;;;35.13;19.37;;;6.30;99.90;;;;;;5045406;28;20712;-83
2023/10/25 02:34:06;;;;;;;44.30;19.97;;;6.30;99.90;;;;;;5044538;28;20234;-83
2023/10/25 02:36:35;;;;;;;34.57;20.20;;;6.30;99.90;;;;;;5055601;28;20228;-83
2023/10/25 02:39:02;;;;;;;74.87;19.20;;;6.30;99.90;;;;;;5066163;28;20224;-83
2023/10/25 02:41:30;;;;;;;38.87;18.63;;;6.40;99.90;;;;;;5064551;28;20267;-83
2023/10/25 02:43:58;;;;;;;40.23;19.70;;;6.40;99.90;;;;;;5065026;28;20925;-83
2023/10/25 02:46:26;;;;;;;36.00;19.47;;;6.40;99.90;;;;;;5063830;28;20228;-84
2023/10/25 02:48:54;;;;;;;43.10;20.03;;;6.40;99.90;;;;;;5047189;28;20233;-83
2023/10/25 02:51:21;;;;;;;36.67;19.00;;;6.40;99.90;;;;;;5038416;28;20261;-82
2023/10/25 02:53:48;;;;;;;37.00;18.93;;;6.40;99.90;;;;;;5066722;28;20258;-83
2023/10/25 02:56:15;;;;;;;44.87;19.90;;;6.40;99.90;;;;;;5066216;28;20294;-82
2023/10/25 02:58:42;;;;;;;31.43;19.23;;;6.40;99.90;;;;;;5066926;28;20249;-83
2023/10/25 03:01:09;;;;;;;43.80;20.03;;;6.40;99.90;;;;;;5064693;28;20293;-84
2023/10/25 03:03:36;;;;;;;33.73;19.83;;;6.40;99.90;;;;;;5065265;28;20230;-83
2023/10/25 03:06:05;;;;;;;38.07;19.70;;;6.50;99.90;;;;;;5065410;28;20224;-83
2023/10/25 03:08:32;;;;;;;40.83;20.03;;;6.50;99.90;;;;;;5064848;28;20260;-83
2023/10/25 03:10:58;;;;;;;36.00;19.73;;;6.50;99.90;;;;;;5065998;28;20706;-83
2023/10/25 03:13:25;;;;;;;45.77;20.50;;;6.50;99.90;;;;;;5064940;28;20221;-83
2023/10/25 03:15:54;;;;;;;33.17;19.70;;;6.50;99.90;;;;;;5065443;28;20281;-82
2023/10/25 03:18:21;;;;;;;33.90;18.77;;;6.60;99.90;;;;;;5048384;28;20236;-83
2023/10/25 03:20:47;;;;;;;31.67;19.83;;;6.60;99.90;;;;;;5065384;28;20282;-83
2023/10/25 03:23:15;;;;;;;32.60;19.53;;;6.60;99.90;;;;;;5062851;28;20308;-83
2023/10/25 03:25:42;;;;;;;33.93;19.63;;;6.60;99.90;;;;;;5065401;28;21063;-83
2023/10/25 03:28:09;;;;;;;32.93;20.70;;;6.60;99.90;;;;;;5064457;28;20233;-83
2023/10/25 03:30:37;;;;;;;36.47;20.23;;;6.60;99.90;;;;;;5066649;28;20305;-82
2023/10/25 03:33:03;;;;;;;41.63;20.33;;;6.60;99.90;;;;;;5064734;28;20228;-83
2023/10/25 03:35:30;;;;;;;44.30;20.20;;;6.70;99.90;;;;;;5064387;28;20795;-83
2023/10/25 03:37:57;;;;;;;32.47;18.80;;;6.70;99.90;;;;;;5064589;28;20609;-83
2023/10/25 03:40:25;;;;;;;31.10;18.50;;;6.70;99.90;;;;;;5064238;28;20236;-83
2023/10/25 03:42:52;;;;;;;36.90;19.33;;;6.70;99.90;;;;;;5065098;28;20229;-83
2023/10/25 03:45:19;;;;;;;32.93;18.73;;;6.70;99.90;;;;;;5063991;28;21073;-82
2023/10/25 03:47:46;;;;;;;43.83;20.30;;;6.70;99.90;;;;;;5064736;28;20244;-82
2023/10/25 03:50:16;;;;;;;33.60;18.40;;;6.70;99.90;;;;;;5064676;28;20235;-83
2023/10/25 03:52:43;;;;;;;43.37;20.70;;;6.70;99.90;;;;;;5064516;28;20225;-82
2023/10/25 03:55:10;;;;;;;59.10;21.33;;;6.70;99.90;;;;;;5059390;28;20766;-82
2023/10/25 03:57:38;;;;;;;27.97;18.40;;;6.70;99.90;;;;;;5063553;28;20248;-83
2023/10/25 04:00:06;;;;;;;45.77;20.37;;;6.70;99.90;;;;;;5058538;28;20960;-83
2023/10/25 04:02:39;;;;;;;36.73;19.80;;;6.70;99.90;;;;;;5052678;28;20274;-84
2023/10/25 04:05:06;;;;;;;46.17;20.73;;;6.70;99.90;;;;;;5063655;28;20233;-84
2023/10/25 04:07:33;;;;;;;60.57;22.73;;;6.70;99.90;;;;;;5081064;28;20311;-83
2023/10/25 04:10:00;;;;;;;71.47;22.00;;;6.70;99.90;;;;;;5080951;28;20254;-83
2023/10/25 04:12:28;;;;;;;82.37;23.23;;;6.70;99.90;;;;;;5064434;28;20269;-84
2023/10/25 04:14:56;;;;;;;82.33;22.50;;;6.70;99.90;;;;;;5044151;28;20299;-84
2023/10/25 04:17:23;;;;;;;91.97;23.90;;;6.80;99.90;;;;;;5054158;28;20696;-83
2023/10/25 04:19:51;;;;;;;77.60;22.20;;;6.80;99.90;;;;;;5063631;28;20228;-83
2023/10/25 04:22:19;;;;;;;61.97;21.57;;;6.90;99.90;;;;;;5065078;28;20729;-85
2023/10/25 04:24:46;;;;;;;239.60;31.40;;;6.90;99.90;;;;;;5065658;28;20237;-82
2023/10/25 04:27:13;;;;;;;396.23;41.97;;;6.90;99.90;;;;;;5059075;28;20305;-86
2023/10/25 04:29:40;;;;;;;72.13;23.03;;;7.00;99.90;;;;;;5060258;28;20249;-86
2023/10/25 04:32:09;;;;;;;89.27;23.40;;;7.00;99.90;;;;;;5059151;28;20615;-86
2023/10/25 04:34:36;;;;;;;320.87;34.73;;;7.00;99.90;;;;;;5057141;28;20220;-86
2023/10/25 04:37:03;;;;;;;129.17;24.83;;;7.10;99.90;;;;;;5057290;28;20233;-86
2023/10/25 04:39:30;;;;;;;77.60;22.80;;;7.10;99.90;;;;;;5061491;28;20765;-86
2023/10/25 04:42:00;;;;;;;246.03;31.73;;;7.20;99.90;;;;;;5055989;28;20236;-87
2023/10/25 04:44:28;;;;;;;204.67;28.70;;;7.10;99.90;;;;;;5062838;28;20226;-87
2023/10/25 04:46:55;;;;;;;72.37;21.93;;;7.20;99.90;;;;;;5063754;28;20309;-88
2023/10/25 04:49:24;;;;;;;109.27;24.07;;;7.20;99.90;;;;;;5062358;28;20604;-87
2023/10/25 04:51:53;;;;;;;140.27;25.73;;;7.20;99.90;;;;;;5054366;28;20636;-87
2023/10/25 04:54:20;;;;;;;178.70;28.27;;;7.20;99.90;;;;;;5075467;28;20237;-86
2023/10/25 04:56:47;;;;;;;207.17;29.30;;;7.20;99.90;;;;;;5070334;28;20233;-88
2023/10/25 04:59:14;;;;;;;82.97;22.83;;;7.20;99.90;;;;;;5051511;28;20263;-88
2023/10/25 05:01:41;;;;;;;196.43;27.50;;;7.20;99.90;;;;;;5059742;28;20268;-90
2023/10/25 05:04:08;;;;;;;110.23;22.83;;;7.10;99.90;;;;;;5074904;28;20225;-89
2023/10/25 05:06:37;;;;;;;262.40;32.60;;;7.10;99.90;;;;;;5057831;28;20217;-90
2023/10/25 05:09:05;;;;;;;80.67;21.17;;;7.10;99.90;;;;;;5060306;28;20343;-89
2023/10/25 05:11:55;;;;;;;93.37;22.83;;;7.10;99.90;;;;;;5059297;28;20297;-88
2023/10/25 05:18:29;;;;;;;32.57;18.97;;;7.00;99.90;;;;;;5051342;28;20956;-89
2023/10/25 05:20:58;;;;;;;29.80;18.47;;;7.00;99.90;;;;;;5058844;28;20288;-88
2023/10/25 05:23:30;;;;;;;30.70;17.83;;;7.00;99.90;;;;;;5024691;28;20227;-82
2023/10/25 05:25:58;;;;;;;30.93;18.43;;;6.90;99.90;;;;;;5064065;28;20283;-83
2023/10/25 05:28:26;;;;;;;31.30;18.23;;;6.80;99.90;;;;;;5058309;28;20309;-88
2023/10/25 05:30:55;;;;;;;32.53;17.97;;;6.80;99.90;;;;;;5032650;28;20740;-88
2023/10/25 05:33:24;;;;;;;28.70;17.97;;;6.80;99.90;;;;;;5063394;28;20894;-89
2023/10/25 05:35:55;;;;;;;51.53;20.00;;;6.70;99.90;;;;;;5034374;28;20232;-89
2023/10/25 05:38:22;;;;;;;114.30;22.30;;;6.60;99.90;;;;;;5057354;28;20270;-88
2023/10/25 05:40:53;;;;;;;26.70;17.63;;;6.60;99.90;;;;;;5056915;28;20241;-89
2023/10/25 05:43:27;;;;;;;32.40;17.67;;;6.50;99.90;;;;;;5052828;28;20249;-88
2023/10/25 05:45:54;;;;;;;31.77;17.93;;;6.50;99.90;;;;;;5054395;28;20315;-88
2023/10/25 05:48:21;;;;;;;39.73;17.33;;;6.40;99.90;;;;;;5063628;28;20239;-88
2023/10/25 05:50:51;;;;;;;27.03;16.10;;;6.40;99.90;;;;;;5059697;28;20282;-89
2023/10/25 14:27:57;;;;;;;5.60;4.00;;;13.90;99.90;;;;;;5049405;28;20225;-90
2023/10/25 14:30:24;;;;;;;7.20;4.53;;;13.80;99.90;;;;;;5070323;28;20228;-89
2023/10/25 14:44:15;;;;;;;8.67;5.40;;;13.50;99.90;;;;;;5065579;28;20231;-87
2023/10/25 14:46:44;;;;;;;6.77;5.40;;;13.40;99.90;;;;;;5055046;28;20225;-89
2023/10/25 16:50:13;;;;;;;23.47;18.73;;;10.20;99.90;;;;;;5053749;28;20769;-85
2023/10/25 16:52:40;;;;;;;24.73;20.33;;;10.20;99.90;;;;;;5032904;28;20222;-86
2023/10/25 16:55:08;;;;;;;22.80;19.47;;;10.20;99.90;;;;;;5031155;28;20240;-83
2023/10/25 16:57:34;;;;;;;24.60;19.40;;;10.20;99.90;;;;;;5032408;28;20250;-85
2023/10/25 17:00:03;;;;;;;25.60;20.53;;;10.10;99.90;;;;;;5048902;28;20629;-85
2023/10/25 17:02:30;;;;;;;26.57;20.60;;;10.10;99.90;;;;;;5047900;28;20226;-86
2023/10/25 17:04:56;;;;;;;28.40;21.30;;;10.10;99.90;;;;;;5035408;28;20239;-86
2023/10/25 17:07:25;;;;;;;27.33;20.30;;;10.10;99.90;;;;;;5032971;28;20303;-86
2023/10/25 17:09:51;;;;;;;26.57;20.00;;;10.10;99.90;;;;;;5035889;28;20275;-85
2023/10/25 17:12:18;;;;;;;24.73;19.47;;;10.10;99.90;;;;;;5050092;28;20215;-86
2023/10/25 17:14:45;;;;;;;24.87;20.20;;;10.10;99.90;;;;;;5033920;28;20314;-85
2023/10/25 17:17:12;;;;;;;21.90;18.30;;;10.10;99.90;;;;;;5068010;28;20867;-86
2023/10/25 17:19:39;;;;;;;22.40;18.50;;;10.10;99.90;;;;;;5070631;28;20993;-86
2023/10/25 17:22:06;;;;;;;23.80;19.03;;;10.10;99.90;;;;;;5029155;28;20306;-86
2023/10/25 17:24:34;;;;;;;21.67;18.17;;;10.10;99.90;;;;;;5031027;28;20230;-86
2023/10/25 17:27:01;;;;;;;21.20;18.00;;;10.10;99.90;;;;;;5035418;28;20715;-86
2023/10/25 17:29:28;;;;;;;21.57;17.97;;;10.10;99.90;;;;;;5032511;28;20238;-86
2023/10/25 17:31:54;;;;;;;22.33;18.07;;;10.10;99.90;;;;;;5051626;28;20281;-86
2023/10/25 17:34:21;;;;;;;20.97;17.40;;;10.10;99.90;;;;;;5055326;28;20240;-85
2023/10/25 17:36:48;;;;;;;20.83;17.33;;;10.10;99.90;;;;;;5052519;28;20251;-84
2023/10/25 17:39:14;;;;;;;23.50;18.10;;;10.10;99.90;;;;;;5034392;28;20226;-85
2023/10/25 17:41:44;;;;;;;22.03;17.20;;;10.10;99.90;;;;;;5057741;28;20238;-86
2023/10/25 17:44:11;;;;;;;20.97;17.53;;;10.10;99.90;;;;;;5053674;28;20283;-86
2023/10/25 17:46:37;;;;;;;23.43;18.20;;;10.10;99.90;;;;;;5037573;28;20338;-85
2023/10/25 17:49:04;;;;;;;24.87;18.17;;;10.10;99.90;;;;;;5037156;28;20259;-86
2023/10/25 17:51:31;;;;;;;25.40;17.73;;;10.10;99.90;;;;;;5057956;28;20654;-85
2023/10/25 17:53:58;;;;;;;22.73;18.23;;;10.00;99.90;;;;;;5040929;28;20243;-85
2023/10/25 17:56:25;;;;;;;21.07;17.30;;;10.00;99.90;;;;;;5042019;28;20239;-85
2023/10/25 17:58:53;;;;;;;22.17;17.93;;;10.00;99.90;;;;;;5065105;28;20254;-85
2023/10/25 18:01:19;;;;;;;21.70;17.77;;;10.00;99.90;;;;;;5038310;28;20670;-85
2023/10/25 18:03:46;;;;;;;22.47;18.10;;;10.00;99.90;;;;;;5041514;28;20271;-86
2023/10/25 18:06:13;;;;;;;20.30;17.47;;;10.00;99.90;;;;;;5040989;28;20308;-85
2023/10/25 18:08:39;;;;;;;24.97;17.73;;;10.00;99.90;;;;;;5044437;28;20262;-85
2023/10/25 18:11:07;;;;;;;20.37;17.13;;;9.90;99.90;;;;;;5034757;28;20310;-85
2023/10/25 18:13:34;;;;;;;21.07;17.87;;;9.90;99.90;;;;;;5036278;28;20234;-84
2023/10/25 18:16:02;;;;;;;21.57;18.03;;;9.90;99.90;;;;;;5060733;28;20323;-85
2023/10/25 18:18:29;;;;;;;20.40;16.90;;;9.90;99.90;;;;;;5063152;28;20289;-85
2023/10/25 18:20:57;;;;;;;23.73;17.80;;;9.90;99.90;;;;;;5033751;28;21049;-85
2023/10/25 18:23:25;;;;;;;22.03;18.40;;;9.80;99.90;;;;;;5031232;28;20261;-85
2023/10/25 18:25:52;;;;;;;23.27;17.40;;;9.80;99.90;;;;;;5048769;28;20232;-84
2023/10/25 18:28:21;;;;;;;22.97;18.10;;;9.80;99.90;;;;;;5036715;28;20226;-84
2023/10/25 18:30:52;;;;;;;21.67;18.27;;;9.80;99.90;;;;;;5042073;28;20238;-85
2023/10/25 18:33:21;;;;;;;22.90;18.83;;;9.80;99.90;;;;;;5063980;28;20214;-85
2023/10/25 18:35:48;;;;;;;24.30;18.37;;;9.70;99.90;;;;;;5046318;28;20234;-84
2023/10/25 18:38:17;;;;;;;20.60;18.40;;;9.70;99.90;;;;;;5044566;28;20220;-85
2023/10/25 18:40:45;;;;;;;23.50;18.83;;;9.70;99.90;;;;;;5051089;28;20312;-86
2023/10/25 18:43:12;;;;;;;24.20;18.83;;;9.70;99.90;;;;;;5052877;28;20240;-87
2023/10/25 18:45:39;;;;;;;23.87;19.13;;;9.80;99.90;;;;;;5052620;28;20227;-85
2023/10/25 18:48:06;;;;;;;22.30;18.63;;;9.70;99.90;;;;;;5070636;28;20290;-85
2023/10/25 18:50:35;;;;;;;22.37;18.40;;;9.70;99.90;;;;;;5051463;28;20270;-86
2023/10/25 18:53:02;;;;;;;24.00;19.80;;;9.70;99.90;;;;;;5043968;28;20222;-86
2023/10/25 18:55:30;;;;;;;23.07;19.30;;;9.70;99.90;;;;;;5070096;28;20324;-85
2023/10/25 18:57:56;;;;;;;24.80;19.03;;;9.70;99.90;;;;;;5062372;28;20606;-86
2023/10/25 19:00:24;;;;;;;21.67;18.70;;;9.70;99.90;;;;;;5042725;28;20319;-84
2023/10/25 19:02:54;;;;;;;23.87;19.33;;;9.70;99.90;;;;;;5043984;28;20234;-85
2023/10/25 19:05:21;;;;;;;24.20;19.67;;;9.70;99.90;;;;;;5049938;28;20257;-87
2023/10/25 19:07:49;;;;;;;26.33;19.00;;;9.70;99.90;;;;;;5045907;28;20226;-85
2023/10/25 19:10:17;;;;;;;23.07;18.30;;;9.60;99.90;;;;;;5040666;28;20728;-86
2023/10/25 19:12:44;;;;;;;23.17;18.90;;;9.70;99.90;;;;;;5043223;28;20219;-86
2023/10/25 19:15:13;;;;;;;21.77;19.47;;;9.60;99.90;;;;;;5073600;28;20222;-86
2023/10/25 19:17:40;;;;;;;21.67;18.30;;;9.60;99.90;;;;;;5067669;28;20593;-87
2023/10/25 19:20:08;;;;;;;23.27;18.60;;;9.60;99.90;;;;;;5064285;28;20727;-85
2023/10/25 19:22:35;;;;;;;24.23;18.57;;;9.60;99.90;;;;;;5060363;28;20230;-86
2023/10/25 19:25:05;;;;;;;24.10;18.83;;;9.70;99.90;;;;;;5042085;28;20857;-86
2023/10/25 19:27:33;;;;;;;22.47;17.50;;;9.60;99.90;;;;;;5043030;28;20996;-85
2023/10/25 19:29:59;;;;;;;22.63;18.50;;;9.60;99.90;;;;;;5049447;28;20311;-84
2023/10/25 19:32:27;;;;;;;25.27;17.97;;;9.60;99.90;;;;;;5043311;28;20254;-86
2023/10/25 19:34:54;;;;;;;25.90;19.33;;;9.70;99.90;;;;;;5061284;28;20293;-85
2023/10/25 19:37:21;;;;;;;22.67;17.93;;;9.60;99.90;;;;;;5039821;28;20231;-86
2023/10/25 19:39:48;;;;;;;22.10;17.33;;;9.70;99.90;;;;;;5048463;28;20305;-85
2023/10/25 19:42:18;;;;;;;22.57;18.73;;;9.70;99.90;;;;;;5037559;28;20723;-86
2023/10/25 19:44:44;;;;;;;21.70;17.83;;;9.70;99.90;;;;;;5039426;28;20314;-87
2023/10/25 19:47:18;;;;;;;22.00;17.80;;;9.70;99.90;;;;;;5061631;28;20628;-85
2023/10/25 19:49:45;;;;;;;21.17;18.87;;;9.70;99.90;;;;;;5052059;28;20234;-85
2023/10/25 19:52:14;;;;;;;21.67;17.87;;;9.70;99.90;;;;;;5038653;28;20219;-85
2023/10/25 19:54:45;;;;;;;23.17;18.60;;;9.70;99.90;;;;;;5048541;28;20315;-86
2023/10/25 19:57:12;;;;;;;24.00;18.20;;;9.70;99.90;;;;;;5060060;28;20273;-83
2023/10/25 19:59:42;;;;;;;19.67;17.60;;;9.70;99.90;;;;;;5061388;28;20265;-84
2023/10/25 20:02:11;;;;;;;20.20;17.53;;;9.70;99.90;;;;;;5042784;28;20226;-85
2023/10/25 20:04:38;;;;;;;22.30;17.33;;;9.70;99.90;;;;;;5048233;28;20285;-84
2023/10/25 20:07:05;;;;;;;21.40;18.23;;;9.80;99.90;;;;;;5063661;28;20902;-85
2023/10/25 20:09:32;;;;;;;23.77;17.27;;;9.80;99.90;;;;;;5039980;28;20230;-85
2023/10/25 20:11:59;;;;;;;21.93;17.20;;;9.80;99.90;;;;;;5040020;28;20254;-85
2023/10/25 20:14:26;;;;;;;23.33;18.37;;;9.80;99.90;;;;;;5074240;28;20231;-85
2023/10/25 20:16:54;;;;;;;21.63;17.63;;;9.80;99.90;;;;;;5039728;28;20581;-85
2023/10/25 20:19:21;;;;;;;24.27;18.47;;;9.90;99.90;;;;;;5041786;28;20223;-84
2023/10/25 20:21:48;;;;;;;26.60;18.77;;;9.90;99.90;;;;;;5043222;28;20353;-85
2023/10/25 20:24:15;;;;;;;21.63;17.53;;;9.90;99.90;;;;;;5061707;28;20246;-85
2023/10/25 20:26:42;;;;;;;21.73;18.03;;;9.90;99.90;;;;;;5041466;28;20251;-85
2023/10/25 20:29:09;;;;;;;21.57;18.20;;;10.00;99.90;;;;;;5045171;28;20537;-85
2023/10/25 20:31:36;;;;;;;25.63;17.90;;;9.90;99.90;;;;;;5040150;28;21017;-85
2023/10/25 20:34:04;;;;;;;22.30;18.70;;;10.00;99.90;;;;;;5037528;28;20281;-85
2023/10/25 20:36:31;;;;;;;23.50;19.00;;;10.00;99.90;;;;;;5036732;28;20234;-85
2023/10/25 20:38:59;;;;;;;23.70;18.77;;;10.10;99.90;;;;;;5048586;28;20250;-85
2023/10/25 20:41:27;;;;;;;26.03;18.47;;;10.00;99.90;;;;;;5070376;28;20239;-85
2023/10/25 20:43:54;;;;;;;24.07;17.47;;;10.00;99.90;;;;;;5059931;28;20289;-86
2023/10/25 20:46:21;;;;;;;21.53;17.10;;;10.00;99.90;;;;;;5056937;28;20221;-85
2023/10/25 20:48:48;;;;;;;24.00;18.07;;;10.00;99.90;;;;;;5052062;28;20234;-84
2023/10/25 20:51:18;;;;;;;21.90;17.87;;;10.10;99.90;;;;;;5055183;28;20293;-86
2023/10/25 20:53:45;;;;;;;21.47;16.13;;;10.00;99.90;;;;;;5072179;28;20895;-85
2023/10/25 20:56:12;;;;;;;22.10;16.67;;;10.10;99.90;;;;;;5053691;28;20235;-86
2023/10/25 20:58:39;;;;;;;19.60;16.50;;;10.10;99.90;;;;;;5052806;28;20233;-87
2023/10/25 21:01:06;;;;;;;19.00;16.03;;;10.00;99.90;;;;;;5053974;28;20713;-86
2023/10/25 21:03:33;;;;;;;20.00;15.23;;;10.00;99.90;;;;;;5042985;28;20230;-86
2023/10/25 21:05:59;;;;;;;19.47;16.00;;;10.00;99.90;;;;;;5041489;28;20223;-86
2023/10/25 21:08:28;;;;;;;17.37;15.20;;;10.00;99.90;;;;;;5041765;28;20283;-87
2023/10/25 21:10:58;;;;;;;19.17;15.73;;;10.00;99.90;;;;;;5036644;28;20302;-87
2023/10/25 21:13:25;;;;;;;17.30;14.67;;;9.90;99.90;;;;;;5040286;28;20701;-87
2023/10/25 21:15:52;;;;;;;17.67;14.23;;;10.00;99.90;;;;;;5043351;28;20277;-86
2023/10/25 21:18:18;;;;;;;20.80;15.80;;;9.90;99.90;;;;;;5042435;28;20226;-86
2023/10/25 21:20:45;;;;;;;16.87;14.70;;;9.90;99.90;;;;;;5049446;28;20287;-86
2023/10/25 21:23:12;;;;;;;18.70;15.93;;;9.90;99.90;;;;;;5053794;28;20302;-86
2023/10/25 21:25:41;;;;;;;20.53;15.30;;;9.90;99.90;;;;;;5049080;28;20321;-86
2023/10/25 21:28:08;;;;;;;19.20;14.90;;;9.90;99.90;;;;;;5060156;28;20240;-87
2023/10/25 21:30:36;;;;;;;19.87;14.70;;;9.90;99.90;;;;;;5047572;28;20219;-86
2023/10/25 21:33:04;;;;;;;15.83;14.13;;;9.80;99.90;;;;;;5061081;28;20420;-86
2023/10/25 21:35:31;;;;;;;16.60;14.37;;;9.80;99.90;;;;;;5035661;28;20324;-86
2023/10/25 21:37:58;;;;;;;18.63;15.00;;;9.80;99.90;;;;;;5038870;28;20326;-86
2023/10/25 21:40:24;;;;;;;17.33;14.03;;;9.80;99.90;;;;;;5036228;28;20370;-86
2023/10/25 21:42:53;;;;;;;16.63;14.30;;;9.70;99.90;;;;;;5036479;28;20222;-85
2023/10/25 21:45:20;;;;;;;16.37;13.77;;;9.70;99.90;;;;;;5042957;28;20949;-86
2023/10/25 21:47:48;;;;;;;19.73;14.03;;;9.70;99.90;;;;;;5045377;28;20314;-85
2023/10/25 21:50:14;;;;;;;16.47;13.87;;;9.70;99.90;;;;;;5043840;28;20257;-86
2023/10/25 21:52:41;;;;;;;15.40;13.10;;;9.70;99.90;;;;;;5040532;28;20972;-86
2023/10/25 21:55:09;;;;;;;21.30;13.80;;;9.70;99.90;;;;;;5044329;28;20760;-85
2023/10/25 21:57:36;;;;;;;17.97;13.23;;;9.70;99.90;;;;;;5046543;28;20254;-86
2023/10/25 22:00:08;;;;;;;14.37;12.87;;;9.70;99.90;;;;;;5044871;28;20276;-85
2023/10/25 22:02:38;;;;;;;18.40;13.57;;;9.60;99.90;;;;;;5063961;28;20331;-86
2023/10/25 22:05:06;;;;;;;21.63;14.00;;;9.70;99.90;;;;;;5038543;28;20242;-85
2023/10/25 22:07:32;;;;;;;17.43;12.77;;;9.70;99.90;;;;;;5041854;28;20229;-85
2023/10/25 22:09:59;;;;;;;16.17;12.80;;;9.60;99.90;;;;;;5041032;28;20213;-85
2023/10/25 22:12:26;;;;;;;18.63;13.10;;;9.60;99.90;;;;;;5039461;28;20323;-86
2023/10/25 22:14:53;;;;;;;20.37;13.10;;;9.60;99.90;;;;;;5060470;28;20300;-86
2023/10/25 22:17:21;;;;;;;18.00;12.53;;;9.60;99.90;;;;;;5042149;28;20745;-86
2023/10/25 22:19:48;;;;;;;18.70;13.23;;;9.60;99.90;;;;;;5041362;28;22000;-86
2023/10/25 22:22:14;;;;;;;17.20;12.67;;;9.60;99.90;;;;;;5045639;28;20246;-85
2023/10/25 22:24:41;;;;;;;17.97;13.50;;;9.60;99.90;;;;;;5062640;28;20246;-86
2023/10/25 22:27:08;;;;;;;17.33;13.07;;;9.60;99.90;;;;;;5026446;28;20228;-85
2023/10/25 22:29:35;;;;;;;14.47;12.63;;;9.50;99.90;;;;;;5067593;28;21163;-86
2023/10/25 22:32:02;;;;;;;16.77;13.10;;;9.50;99.90;;;;;;5063900;28;20241;-85
2023/10/25 22:34:30;;;;;;;15.93;12.80;;;9.50;99.90;;;;;;5045852;28;20234;-85
2023/10/25 22:36:57;;;;;;;16.37;13.50;;;9.50;99.90;;;;;;5047974;28;20762;-86
2023/10/25 22:39:24;;;;;;;17.13;12.77;;;9.50;99.90;;;;;;5059170;28;23329;-86
2023/10/25 22:41:53;;;;;;;15.80;12.60;;;9.50;99.90;;;;;;5046757;28;20221;-85
2023/10/25 22:44:20;;;;;;;17.07;12.67;;;9.50;99.90;;;;;;5024689;28;20219;-86
2023/10/25 22:46:47;;;;;;;18.60;12.63;;;9.50;99.90;;;;;;5040599;28;20852;-86
2023/10/25 22:49:14;;;;;;;17.07;12.60;;;9.40;99.90;;;;;;5060870;28;20219;-86
2023/10/25 22:51:42;;;;;;;14.93;11.73;;;9.40;99.90;;;;;;5039123;28;20234;-86
2023/10/25 22:54:09;;;;;;;15.10;12.23;;;9.40;99.90;;;;;;5069681;28;20772;-86
2023/10/25 22:56:36;;;;;;;18.10;12.27;;;9.40;99.90;;;;;;5041340;28;20222;-86
2023/10/25 22:59:03;;;;;;;15.70;11.80;;;9.40;99.90;;;;;;5042782;28;20611;-86
2023/10/25 23:01:30;;;;;;;15.47;11.60;;;9.40;99.90;;;;;;5039595;28;20226;-86
2023/10/25 23:03:57;;;;;;;15.60;11.97;;;9.40;99.90;;;;;;5063582;28;20234;-87
2023/10/25 23:06:23;;;;;;;16.43;11.53;;;9.40;99.90;;;;;;5076621;28;20226;-86
2023/10/25 23:08:51;;;;;;;15.70;11.73;;;9.40;99.90;;;;;;5058092;28;20233;-87
2023/10/25 23:11:18;;;;;;;18.40;12.63;;;9.30;99.90;;;;;;5039424;28;20338;-87
2023/10/25 23:13:45;;;;;;;14.17;10.43;;;9.30;99.90;;;;;;5042158;28;20234;-87
2023/10/25 23:16:12;;;;;;;16.00;11.67;;;9.30;99.90;;;;;;5040886;28;20255;-87
2023/10/25 23:18:39;;;;;;;14.70;10.67;;;9.30;99.90;;;;;;5059099;28;20237;-85
2023/10/25 23:21:06;;;;;;;16.53;11.33;;;9.30;99.90;;;;;;5038827;28;20225;-87
2023/10/25 23:23:33;;;;;;;14.00;10.77;;;9.30;99.90;;;;;;5043620;28;20233;-85
2023/10/25 23:26:05;;;;;;;13.43;10.43;;;9.30;99.90;;;;;;5062203;28;20227;-86
2023/10/25 23:28:32;;;;;;;12.87;10.60;;;9.30;99.90;;;;;;5076281;28;20261;-85